Time;durP1;ratioP1;P1;durP2;ratioP2;P2;SDS_P1;SDS_P2;PMS_P1;PMS_P2;Temp;Humidity;BMP_temperature;BMP_pressure;BME280_temperature;BME280_humidity;BME280_pressure;Samples;Min_cycle;Max_cycle;Signal;HPM_P1;HPM_P2
2021/05/17 00:00:12;;;;;;;1.47;0.90;;;;;;;;;;5052532;28;20489;-56
2021/05/17 00:02:39;;;;;;;2.20;1.10;;;;;;;;;;5052526;28;20040;-56
2021/05/17 00:05:06;;;;;;;2.33;1.03;;;;;;;;;;5052604;28;20496;-56
2021/05/17 00:07:33;;;;;;;1.97;1.00;;;;;;;;;;5034739;28;20502;-56
2021/05/17 00:10:00;;;;;;;2.73;1.00;;;;;;;;;;5052631;28;20029;-56
2021/05/17 00:12:27;;;;;;;2.17;1.00;;;;;;;;;;5052566;28;20082;-56
2021/05/17 00:14:54;;;;;;;1.87;1.03;;;;;;;;;;5052975;28;20040;-56
2021/05/17 00:17:20;;;;;;;1.17;0.60;;;;;;;;;;5052604;28;20486;-56
2021/05/17 00:19:47;;;;;;;2.00;1.47;;;;;;;;;;5052390;28;20036;-56
2021/05/17 00:22:14;;;;;;;2.67;0.90;;;;;;;;;;5052480;28;20060;-56
2021/05/17 00:24:41;;;;;;;1.57;0.97;;;;;;;;;;5052550;28;20107;-56
2021/05/17 00:27:08;;;;;;;1.10;0.83;;;;;;;;;;5052511;28;20029;-56
2021/05/17 00:29:35;;;;;;;1.20;1.00;;;;;;;;;;5052366;28;20028;-56
2021/05/17 00:32:02;;;;;;;2.50;0.90;;;;;;;;;;5052453;28;20024;-56
2021/05/17 00:34:29;;;;;;;0.90;0.67;;;;;;;;;;5052430;28;20031;-56
2021/05/17 00:36:56;;;;;;;2.03;0.90;;;;;;;;;;5052489;28;20033;-56
2021/05/17 00:39:22;;;;;;;2.83;1.03;;;;;;;;;;5052329;28;20017;-56
2021/05/17 00:41:49;;;;;;;1.10;0.70;;;;;;;;;;5052165;28;20071;-56
2021/05/17 00:44:16;;;;;;;1.77;0.90;;;;;;;;;;5052113;28;20029;-56
2021/05/17 00:46:44;;;;;;;1.37;0.80;;;;;;;;;;5052099;28;20048;-56
2021/05/17 00:49:11;;;;;;;5.80;1.40;;;;;;;;;;5052132;28;20030;-56
2021/05/17 00:51:38;;;;;;;2.63;1.17;;;;;;;;;;5052332;28;20491;-56
2021/05/17 00:54:05;;;;;;;1.60;0.83;;;;;;;;;;5052062;28;20029;-56
2021/05/17 00:56:32;;;;;;;2.47;1.30;;;;;;;;;;5052065;28;20033;-56
2021/05/17 00:58:59;;;;;;;3.07;1.20;;;;;;;;;;5051939;28;20037;-56
2021/05/17 01:01:26;;;;;;;2.07;1.03;;;;;;;;;;5034275;28;20478;-56
2021/05/17 01:03:53;;;;;;;2.57;1.30;;;;;;;;;;5052039;28;20395;-56
2021/05/17 01:06:20;;;;;;;4.90;1.20;;;;;;;;;;5052113;28;20029;-56
2021/05/17 01:08:49;;;;;;;5.00;1.63;;;;;;;;;;5052049;28;20029;-56
2021/05/17 01:11:18;;;;;;;3.43;1.20;;;;;;;;;;5051901;28;20035;-56
2021/05/17 01:13:45;;;;;;;2.93;1.40;;;;;;;;;;5051988;28;20029;-56
2021/05/17 01:16:13;;;;;;;2.73;1.20;;;;;;;;;;5053048;28;20091;-56
2021/05/17 01:18:40;;;;;;;4.27;1.60;;;;;;;;;;5052043;28;20028;-56
2021/05/17 01:21:07;;;;;;;4.43;1.70;;;;;;;;;;5051864;28;20049;-56
2021/05/17 01:23:46;;;;;;;3.87;1.90;;;;;;;;;;5051886;28;20407;-56
2021/05/17 01:26:13;;;;;;;5.60;1.53;;;;;;;;;;5053588;28;20025;-56
2021/05/17 01:28:41;;;;;;;3.37;1.43;;;;;;;;;;5055338;28;20025;-55
2021/05/17 01:31:08;;;;;;;3.13;1.30;;;;;;;;;;5055437;28;20033;-56
2021/05/17 01:33:39;;;;;;;4.60;1.60;;;;;;;;;;5055521;28;20033;-56
2021/05/17 01:36:06;;;;;;;2.73;1.30;;;;;;;;;;5055334;28;20026;-56
2021/05/17 01:38:34;;;;;;;2.80;1.23;;;;;;;;;;5055268;28;20047;-56
2021/05/17 01:41:03;;;;;;;2.50;1.20;;;;;;;;;;5055079;28;20448;-56
2021/05/17 01:43:33;;;;;;;2.40;1.03;;;;;;;;;;5055109;28;20115;-56
2021/05/17 01:46:04;;;;;;;6.03;1.70;;;;;;;;;;5054969;28;20029;-56
2021/05/17 01:48:36;;;;;;;2.93;1.20;;;;;;;;;;5055395;28;20063;-56
2021/05/17 01:51:07;;;;;;;3.23;1.20;;;;;;;;;;5055066;28;20105;-56
2021/05/17 01:53:36;;;;;;;2.10;1.13;;;;;;;;;;5055116;28;20383;-56
2021/05/17 01:56:02;;;;;;;2.30;1.20;;;;;;;;;;5054852;28;20384;-56
2021/05/17 01:58:29;;;;;;;3.20;1.50;;;;;;;;;;5055125;28;20032;-56
2021/05/17 02:00:56;;;;;;;5.27;1.50;;;;;;;;;;5054815;28;20413;-56
2021/05/17 02:03:23;;;;;;;2.97;1.13;;;;;;;;;;5054610;28;20029;-55
2021/05/17 02:05:50;;;;;;;4.30;1.37;;;;;;;;;;5054733;28;20017;-56
2021/05/17 02:08:20;;;;;;;6.67;1.73;;;;;;;;;;5054522;28;20472;-56
2021/05/17 02:10:47;;;;;;;5.10;1.47;;;;;;;;;;5054492;28;20100;-56
2021/05/17 02:13:17;;;;;;;2.47;1.20;;;;;;;;;;5054496;28;20024;-56
2021/05/17 02:15:44;;;;;;;11.17;1.90;;;;;;;;;;5055551;28;20064;-56
2021/05/17 02:18:11;;;;;;;3.37;1.00;;;;;;;;;;5054476;28;20100;-56
2021/05/17 02:20:40;;;;;;;1.90;0.90;;;;;;;;;;5054438;28;20025;-56
2021/05/17 02:23:09;;;;;;;2.30;1.07;;;;;;;;;;5054349;28;20049;-56
2021/05/17 02:25:37;;;;;;;2.67;1.40;;;;;;;;;;5054422;28;20028;-56
2021/05/17 02:28:04;;;;;;;2.77;1.50;;;;;;;;;;5054397;28;20028;-56
2021/05/17 02:30:31;;;;;;;3.97;1.73;;;;;;;;;;5054323;28;20031;-56
2021/05/17 02:32:57;;;;;;;4.57;1.60;;;;;;;;;;5036908;28;20387;-56
2021/05/17 02:35:24;;;;;;;3.73;1.53;;;;;;;;;;5054155;28;20095;-56
2021/05/17 02:37:51;;;;;;;2.00;1.20;;;;;;;;;;5054064;28;20109;-56
2021/05/17 02:40:18;;;;;;;4.23;1.83;;;;;;;;;;5053896;28;20056;-56
2021/05/17 02:42:47;;;;;;;4.60;1.20;;;;;;;;;;5053911;28;20039;-56
2021/05/17 02:45:15;;;;;;;3.50;1.40;;;;;;;;;;5054047;28;20416;-56
2021/05/17 02:47:41;;;;;;;3.43;1.23;;;;;;;;;;5054202;28;20475;-56
2021/05/17 02:50:10;;;;;;;4.13;1.53;;;;;;;;;;5053686;28;20025;-56
2021/05/17 02:52:37;;;;;;;3.63;1.73;;;;;;;;;;5053815;28;20115;-56
2021/05/17 02:55:06;;;;;;;4.43;1.47;;;;;;;;;;5053909;28;20460;-56
2021/05/17 02:57:55;;;;;;;5.17;1.63;;;;;;;;;;5053913;28;20056;-56
2021/05/17 03:00:23;;;;;;;4.87;1.77;;;;;;;;;;5053256;28;20480;-56
2021/05/17 03:03:08;;;;;;;4.10;1.60;;;;;;;;;;5053517;28;20033;-56
2021/05/17 03:05:34;;;;;;;;;;;;;;;;;;5054015;28;20079;-56
2021/05/17 03:08:04;;;;;;;6.27;1.50;;;;;;;;;;5053651;28;19908;-56
2021/05/17 03:10:32;;;;;;;5.27;1.80;;;;;;;;;;5053352;28;20112;-56
2021/05/17 03:13:03;;;;;;;5.60;1.73;;;;;;;;;;5053359;28;20021;-55
2021/05/17 03:15:31;;;;;;;3.40;1.67;;;;;;;;;;5054382;28;20053;-56
2021/05/17 03:17:58;;;;;;;3.70;1.67;;;;;;;;;;5053736;28;20036;-56
2021/05/17 03:20:26;;;;;;;4.30;1.90;;;;;;;;;;5053086;28;20120;-55
2021/05/17 03:22:54;;;;;;;5.03;2.10;;;;;;;;;;5053208;28;20469;-56
2021/05/17 03:25:23;;;;;;;4.57;2.30;;;;;;;;;;5053228;28;20036;-55
2021/05/17 03:27:50;;;;;;;6.10;2.93;;;;;;;;;;5053229;28;20025;-56
2021/05/17 03:30:17;;;;;;;4.47;2.37;;;;;;;;;;5053095;28;20105;-56
2021/05/17 03:32:44;;;;;;;4.40;2.63;;;;;;;;;;5053321;28;20528;-56
2021/05/17 03:35:11;;;;;;;5.70;2.83;;;;;;;;;;5053248;28;20021;-56
2021/05/17 03:37:38;;;;;;;8.13;3.83;;;;;;;;;;5053129;28;20529;-55
2021/05/17 03:40:06;;;;;;;7.83;3.73;;;;;;;;;;5052949;28;20024;-55
2021/05/17 03:42:32;;;;;;;6.83;2.80;;;;;;;;;;5052958;28;20037;-55
2021/05/17 03:44:59;;;;;;;5.43;3.50;;;;;;;;;;5052860;28;20028;-56
2021/05/17 03:47:26;;;;;;;6.40;3.07;;;;;;;;;;5052798;28;20032;-56
2021/05/17 03:49:53;;;;;;;6.60;2.90;;;;;;;;;;5052272;28;20159;-56
2021/05/17 03:52:19;;;;;;;5.80;2.93;;;;;;;;;;5052766;28;20036;-56
2021/05/17 03:54:46;;;;;;;6.23;3.00;;;;;;;;;;5052908;28;20025;-56
2021/05/17 03:57:14;;;;;;;5.97;3.07;;;;;;;;;;5052642;28;20463;-56
2021/05/17 03:59:43;;;;;;;4.37;2.23;;;;;;;;;;5052697;28;20025;-56
2021/05/17 04:02:10;;;;;;;8.83;3.33;;;;;;;;;;5052482;28;20068;-56
2021/05/17 04:04:42;;;;;;;10.60;3.20;;;;;;;;;;5052850;28;20021;-56
2021/05/17 04:12:30;;;;;;;5.20;2.75;;;;;;;;;;5052923;28;20044;-55
2021/05/17 04:14:57;;;;;;;8.30;2.90;;;;;;;;;;5052832;28;20033;-56
2021/05/17 04:17:24;;;;;;;6.80;3.00;;;;;;;;;;5052392;28;20530;-55
2021/05/17 04:19:51;;;;;;;7.00;2.77;;;;;;;;;;5052432;28;20029;-56
2021/05/17 04:22:18;;;;;;;6.07;2.90;;;;;;;;;;5052344;28;20502;-56
2021/05/17 04:24:44;;;;;;;6.97;2.60;;;;;;;;;;5052384;28;20029;-55
2021/05/17 04:27:11;;;;;;;5.60;2.80;;;;;;;;;;5052432;28;20028;-56
2021/05/17 04:29:38;;;;;;;7.43;3.00;;;;;;;;;;5052240;28;20479;-56
2021/05/17 04:32:05;;;;;;;6.00;2.37;;;;;;;;;;5052535;28;20025;-55
2021/05/17 04:34:31;;;;;;;7.73;2.73;;;;;;;;;;5052339;28;20086;-56
2021/05/17 04:36:58;;;;;;;8.70;2.90;;;;;;;;;;5052354;28;20033;-56
2021/05/17 04:39:25;;;;;;;5.87;3.20;;;;;;;;;;5052265;28;20108;-55
2021/05/17 04:41:52;;;;;;;6.07;3.47;;;;;;;;;;5052005;28;20036;-55
2021/05/17 04:44:22;;;;;;;6.03;2.63;;;;;;;;;;5052273;28;20108;-56
2021/05/17 04:46:49;;;;;;;7.43;2.73;;;;;;;;;;5051948;28;20033;-56
2021/05/17 04:49:16;;;;;;;4.43;2.67;;;;;;;;;;5052180;28;20040;-55
2021/05/17 04:51:43;;;;;;;5.80;2.63;;;;;;;;;;5052156;28;20025;-56
2021/05/17 04:54:09;;;;;;;7.43;2.90;;;;;;;;;;5052177;28;20029;-56
2021/05/17 04:56:36;;;;;;;6.53;2.40;;;;;;;;;;5052088;28;20026;-56
2021/05/17 04:59:03;;;;;;;5.20;2.50;;;;;;;;;;5052045;28;20025;-56
2021/05/17 05:01:43;;;;;;;8.00;2.17;;;;;;;;;;5054351;28;20033;-56
2021/05/17 05:04:10;;;;;;;3.97;1.87;;;;;;;;;;5055701;28;20048;-56
2021/05/17 05:06:37;;;;;;;4.23;1.93;;;;;;;;;;5055906;28;20056;-55
2021/05/17 05:09:03;;;;;;;5.73;2.37;;;;;;;;;;5055769;28;20529;-55
2021/05/17 05:11:30;;;;;;;4.80;2.03;;;;;;;;;;5055658;28;20036;-56
2021/05/17 05:13:57;;;;;;;6.10;2.07;;;;;;;;;;5055722;28;20216;-55
2021/05/17 05:16:24;;;;;;;8.50;2.53;;;;;;;;;;5038826;28;20519;-55
2021/05/17 05:18:50;;;;;;;3.60;2.10;;;;;;;;;;5055601;28;20159;-55
2021/05/17 05:21:18;;;;;;;3.80;1.73;;;;;;;;;;5055758;28;20025;-55
2021/05/17 05:23:46;;;;;;;3.60;2.03;;;;;;;;;;5055479;28;20041;-55
2021/05/17 05:31:44;;;;;;;3.50;1.98;;;;;;;;;;5055902;28;20060;-55
2021/05/17 05:34:11;;;;;;;3.03;1.73;;;;;;;;;;5055651;28;20156;-55
2021/05/17 05:36:38;;;;;;;3.73;2.10;;;;;;;;;;5055386;28;20036;-55
2021/05/17 05:39:05;;;;;;;4.13;2.00;;;;;;;;;;5055304;28;20464;-55
2021/05/17 05:41:32;;;;;;;3.33;1.73;;;;;;;;;;5055344;28;20021;-55
2021/05/17 05:43:58;;;;;;;3.80;2.07;;;;;;;;;;5055073;28;20033;-55
2021/05/17 05:46:26;;;;;;;6.00;2.37;;;;;;;;;;5055088;28;20029;-56
2021/05/17 05:48:52;;;;;;;5.77;1.90;;;;;;;;;;5055019;28;20052;-55
2021/05/17 05:51:21;;;;;;;3.50;2.20;;;;;;;;;;5055086;28;20025;-55
2021/05/17 05:53:49;;;;;;;5.43;2.17;;;;;;;;;;5055017;28;20445;-55
2021/05/17 05:56:16;;;;;;;5.70;2.30;;;;;;;;;;5055018;28;20479;-55
2021/05/17 05:58:44;;;;;;;5.23;1.90;;;;;;;;;;5054971;28;20029;-55
2021/05/17 06:01:10;;;;;;;3.63;1.83;;;;;;;;;;5054805;28;20112;-55
2021/05/17 06:03:38;;;;;;;2.37;1.40;;;;;;;;;;5054651;28;20041;-56
2021/05/17 06:06:05;;;;;;;3.90;1.83;;;;;;;;;;5054855;28;20032;-55
2021/05/17 06:08:33;;;;;;;5.87;1.57;;;;;;;;;;5054690;28;20033;-56
2021/05/17 06:11:00;;;;;;;5.67;2.13;;;;;;;;;;5054253;28;20033;-55
2021/05/17 06:13:28;;;;;;;3.23;2.10;;;;;;;;;;5054417;28;20036;-55
2021/05/17 06:15:55;;;;;;;4.87;1.90;;;;;;;;;;5055428;28;20053;-56
2021/05/17 06:18:21;;;;;;;4.93;1.80;;;;;;;;;;5054390;28;20037;-55
2021/05/17 06:20:48;;;;;;;4.33;1.67;;;;;;;;;;5054525;28;20460;-55
2021/05/17 06:23:16;;;;;;;3.33;1.70;;;;;;;;;;5054270;28;20061;-55
2021/05/17 06:25:43;;;;;;;4.17;1.63;;;;;;;;;;5054534;28;20122;-55
2021/05/17 06:28:11;;;;;;;3.37;1.73;;;;;;;;;;5054399;28;20092;-55
2021/05/17 06:30:49;;;;;;;4.10;1.90;;;;;;;;;;5054231;28;20033;-55
2021/05/17 06:33:16;;;;;;;5.63;2.00;;;;;;;;;;5054155;28;20037;-55
2021/05/17 06:35:46;;;;;;;3.37;1.57;;;;;;;;;;5054116;28;20064;-56
2021/05/17 06:38:16;;;;;;;4.60;1.50;;;;;;;;;;5054146;28;20021;-55
2021/05/17 06:40:43;;;;;;;7.97;2.00;;;;;;;;;;5054003;28;20029;-55
2021/05/17 06:43:10;;;;;;;5.07;1.90;;;;;;;;;;5054002;28;20036;-55
2021/05/17 06:45:37;;;;;;;5.43;1.50;;;;;;;;;;5053865;28;20032;-55
2021/05/17 06:48:04;;;;;;;2.13;1.37;;;;;;;;;;5054135;28;20067;-55
2021/05/17 06:50:32;;;;;;;3.67;1.63;;;;;;;;;;5053877;28;20060;-55
2021/05/17 06:52:59;;;;;;;3.90;1.80;;;;;;;;;;5053781;28;20029;-55
2021/05/17 06:55:36;;;;;;;3.60;1.70;;;;;;;;;;5053927;28;20017;-55
2021/05/17 06:58:17;;;;;;;5.50;1.67;;;;;;;;;;5053629;28;20496;-55
2021/05/17 07:00:44;;;;;;;3.80;1.87;;;;;;;;;;5053882;28;20029;-55
2021/05/17 07:03:11;;;;;;;3.27;1.40;;;;;;;;;;5053526;28;20040;-55
2021/05/17 07:05:39;;;;;;;3.90;1.50;;;;;;;;;;5053653;28;20033;-56
2021/05/17 07:13:19;;;;;;;2.73;1.20;;;;;;;;;;5053844;28;20044;-55
2021/05/17 07:15:47;;;;;;;3.83;1.40;;;;;;;;;;5054226;28;20044;-56
2021/05/17 07:18:15;;;;;;;2.40;1.20;;;;;;;;;;5053413;28;20122;-55
2021/05/17 07:25:55;;;;;;;2.73;1.50;;;;;;;;;;5053727;28;20036;-54
2021/05/17 07:28:22;;;;;;;2.97;1.10;;;;;;;;;;5053083;28;20028;-55
2021/05/17 07:30:49;;;;;;;2.37;1.27;;;;;;;;;;5053187;28;20492;-55
2021/05/17 07:33:16;;;;;;;2.87;1.53;;;;;;;;;;5053219;28;20040;-55
2021/05/17 07:35:43;;;;;;;2.73;1.10;;;;;;;;;;5053225;28;20021;-55
2021/05/17 07:38:10;;;;;;;2.40;1.13;;;;;;;;;;5053099;28;20029;-55
2021/05/17 07:40:37;;;;;;;2.47;1.20;;;;;;;;;;5053118;28;20029;-55
2021/05/17 07:43:04;;;;;;;2.30;1.50;;;;;;;;;;5053001;28;20036;-55
2021/05/17 07:45:31;;;;;;;2.93;1.40;;;;;;;;;;5052902;28;20464;-55
2021/05/17 07:47:58;;;;;;;2.60;1.10;;;;;;;;;;5052919;28;20475;-55
2021/05/17 07:50:25;;;;;;;2.63;1.30;;;;;;;;;;5052942;28;20036;-55
2021/05/17 07:52:52;;;;;;;1.73;0.90;;;;;;;;;;5052952;28;20020;-55
2021/05/17 07:55:21;;;;;;;1.90;1.10;;;;;;;;;;5052937;28;20021;-55
2021/05/17 07:57:48;;;;;;;3.50;1.67;;;;;;;;;;5052722;28;20108;-55
2021/05/17 08:00:16;;;;;;;1.53;1.00;;;;;;;;;;5052659;28;20099;-55
2021/05/17 08:02:43;;;;;;;6.87;1.30;;;;;;;;;;5052634;28;20072;-55
2021/05/17 08:05:10;;;;;;;2.07;1.33;;;;;;;;;;5052604;28;20025;-55
2021/05/17 08:07:37;;;;;;;4.90;1.47;;;;;;;;;;5052789;28;20025;-55
2021/05/17 08:10:11;;;;;;;3.10;1.43;;;;;;;;;;5052448;28;20056;-55
2021/05/17 08:12:38;;;;;;;4.73;1.50;;;;;;;;;;5052572;28;20446;-55
2021/05/17 08:15:05;;;;;;;2.13;1.40;;;;;;;;;;5052550;28;20021;-55
2021/05/17 08:17:32;;;;;;;3.67;1.37;;;;;;;;;;5053411;28;20115;-55
2021/05/17 08:19:59;;;;;;;2.17;1.17;;;;;;;;;;5052438;28;20499;-55
2021/05/17 08:22:26;;;;;;;2.17;1.27;;;;;;;;;;5052512;28;20033;-55
2021/05/17 08:24:55;;;;;;;5.53;2.10;;;;;;;;;;5052599;28;20353;-55
2021/05/17 08:27:23;;;;;;;2.73;1.40;;;;;;;;;;5052453;28;20029;-55
2021/05/17 08:29:51;;;;;;;2.97;1.27;;;;;;;;;;5052434;28;20107;-55
2021/05/17 08:32:18;;;;;;;1.80;1.10;;;;;;;;;;5052318;28;20029;-55
2021/05/17 08:34:44;;;;;;;2.43;1.20;;;;;;;;;;5053416;28;20051;-55
2021/05/17 08:37:11;;;;;;;3.83;1.70;;;;;;;;;;5056589;28;20028;-55
2021/05/17 08:39:38;;;;;;;3.50;1.50;;;;;;;;;;5056484;28;20029;-55
2021/05/17 08:42:05;;;;;;;4.00;1.83;;;;;;;;;;5056274;28;20079;-55
2021/05/17 08:44:35;;;;;;;4.60;1.77;;;;;;;;;;5056200;28;20033;-55
2021/05/17 08:47:01;;;;;;;3.90;1.60;;;;;;;;;;5056232;28;20036;-55
2021/05/17 08:49:28;;;;;;;4.00;1.90;;;;;;;;;;5056631;28;20024;-55
2021/05/17 08:51:55;;;;;;;2.50;1.70;;;;;;;;;;5056242;28;20027;-55
2021/05/17 08:54:22;;;;;;;2.90;1.80;;;;;;;;;;5056117;28;20013;-55
2021/05/17 08:56:49;;;;;;;4.93;1.97;;;;;;;;;;5056021;28;20025;-55
2021/05/17 08:59:19;;;;;;;13.53;2.00;;;;;;;;;;5055946;28;20029;-55
2021/05/17 09:01:45;;;;;;;3.60;1.93;;;;;;;;;;5055924;28;20036;-55
2021/05/17 09:04:15;;;;;;;3.70;2.10;;;;;;;;;;5055869;28;20029;-55
2021/05/17 09:06:54;;;;;;;2.67;1.80;;;;;;;;;;5055987;28;20021;-55
2021/05/17 09:09:25;;;;;;;6.20;1.90;;;;;;;;;;5055675;28;20483;-55
2021/05/17 09:11:54;;;;;;;2.87;1.80;;;;;;;;;;5055657;28;20036;-55
2021/05/17 09:14:22;;;;;;;3.00;1.90;;;;;;;;;;5055715;28;20032;-55
2021/05/17 09:16:56;;;;;;;3.97;2.17;;;;;;;;;;5056741;28;20460;-55
2021/05/17 09:19:24;;;;;;;3.28;1.92;;;;;;;;;;5055749;28;20021;-55
2021/05/17 09:21:56;;;;;;;5.63;2.33;;;;;;;;;;5055605;28;20053;-55
2021/05/17 09:24:36;;;;;;;4.07;2.30;;;;;;;;;;5055567;28;20045;-55
2021/05/17 09:27:03;;;;;;;3.80;2.40;;;;;;;;;;5055963;28;20028;-55
2021/05/17 09:29:30;;;;;;;4.00;2.53;;;;;;;;;;5055403;28;20123;-55
2021/05/17 09:32:09;;;;;;;3.37;1.93;;;;;;;;;;5055434;28;20028;-55
2021/05/17 09:34:36;;;;;;;3.50;2.10;;;;;;;;;;5055498;28;20025;-55
2021/05/17 09:37:07;;;;;;;4.13;1.80;;;;;;;;;;5055321;28;20025;-55
2021/05/17 09:39:36;;;;;;;4.23;2.33;;;;;;;;;;5055434;28;20430;-55
2021/05/17 09:42:04;;;;;;;5.70;2.40;;;;;;;;;;5055135;28;20032;-55
2021/05/17 09:44:32;;;;;;;5.23;2.43;;;;;;;;;;5055134;28;20025;-55
2021/05/17 09:47:02;;;;;;;3.37;2.00;;;;;;;;;;5054265;28;20029;-55
2021/05/17 09:49:30;;;;;;;10.27;2.23;;;;;;;;;;5055093;28;20391;-55
2021/05/17 09:52:05;;;;;;;3.17;1.87;;;;;;;;;;5055170;28;20021;-55
2021/05/17 09:54:46;;;;;;;3.43;2.20;;;;;;;;;;5055003;28;20024;-55
2021/05/17 09:57:16;;;;;;;4.50;2.37;;;;;;;;;;5054927;28;20427;-55
2021/05/17 09:59:47;;;;;;;4.67;2.50;;;;;;;;;;5054875;28;20033;-55
2021/05/17 10:02:32;;;;;;;5.50;2.20;;;;;;;;;;5054693;28;20032;-55
2021/05/17 10:05:09;;;;;;;4.00;2.25;;;;;;;;;;5054914;28;20025;-55
2021/05/17 10:07:36;;;;;;;3.80;2.23;;;;;;;;;;5054950;28;20059;-55
2021/05/17 10:10:04;;;;;;;5.20;2.50;;;;;;;;;;5054491;28;20385;-55
2021/05/17 10:12:31;;;;;;;4.43;2.60;;;;;;;;;;5054920;28;20073;-54
2021/05/17 10:14:58;;;;;;;5.30;2.87;;;;;;;;;;5054644;28;20040;-55
2021/05/17 10:17:25;;;;;;;3.57;2.27;;;;;;;;;;5055623;28;20049;-55
2021/05/17 10:19:52;;;;;;;4.37;2.53;;;;;;;;;;5054698;28;20207;-55
2021/05/17 10:22:19;;;;;;;4.13;2.60;;;;;;;;;;5055198;28;20463;-55
2021/05/17 10:24:46;;;;;;;5.83;3.07;;;;;;;;;;5054694;28;20021;-55
2021/05/17 10:27:13;;;;;;;4.17;2.63;;;;;;;;;;5054365;28;20435;-55
2021/05/17 10:29:40;;;;;;;4.37;2.90;;;;;;;;;;5054493;28;20025;-55
2021/05/17 10:32:08;;;;;;;4.40;2.80;;;;;;;;;;5054277;28;20021;-55
2021/05/17 10:34:51;;;;;;;4.17;2.70;;;;;;;;;;5054253;28;20488;-55
2021/05/17 10:37:22;;;;;;;3.80;1.93;;;;;;;;;;5054260;28;20128;-55
2021/05/17 10:39:55;;;;;;;4.03;2.67;;;;;;;;;;5054104;28;20056;-55
2021/05/17 10:42:33;;;;;;;4.57;2.50;;;;;;;;;;5054019;28;20479;-55
2021/05/17 10:47:45;;;;;;;;;;;;;;;;;;5054962;28;20453;-55
2021/05/17 10:50:16;;;;;;;4.87;2.17;;;;;;;;;;5054089;28;19905;-55
2021/05/17 10:52:43;;;;;;;4.20;2.00;;;;;;;;;;5053901;28;20466;-55
2021/05/17 10:55:11;;;;;;;4.07;2.50;;;;;;;;;;5054071;28;20051;-55
2021/05/17 10:57:57;;;;;;;4.43;2.27;;;;;;;;;;5053997;28;20033;-55
2021/05/17 11:00:28;;;;;;;6.53;2.60;;;;;;;;;;5053876;28;20035;-55
2021/05/17 11:03:07;;;;;;;4.93;2.37;;;;;;;;;;5053719;28;20033;-55
2021/05/17 11:05:35;;;;;;;3.70;2.30;;;;;;;;;;5053762;28;20491;-55
2021/05/17 11:08:02;;;;;;;3.70;2.37;;;;;;;;;;5053501;28;20032;-54
2021/05/17 11:10:37;;;;;;;4.23;2.57;;;;;;;;;;5053653;28;20107;-55
2021/05/17 11:13:06;;;;;;;4.38;2.40;;;;;;;;;;5053525;28;20021;-56
2021/05/17 11:15:51;;;;;;;5.53;2.77;;;;;;;;;;5053643;28;20025;-56
2021/05/17 11:18:20;;;;;;;4.00;2.55;;;;;;;;;;5033622;28;20084;-55
2021/05/17 11:20:51;;;;;;;6.43;2.60;;;;;;;;;;5033528;28;20060;-56
2021/05/17 11:23:27;;;;;;;4.90;2.43;;;;;;;;;;5033709;28;20048;-55
2021/05/17 11:26:05;;;;;;;4.07;2.63;;;;;;;;;;5033536;28;20103;-56
2021/05/17 11:28:38;;;;;;;7.20;2.27;;;;;;;;;;5033337;28;20045;-55
2021/05/17 11:31:59;;;;;;;4.87;2.33;;;;;;;;;;5033252;28;20025;-55
2021/05/17 11:34:15;;;;;;;5.87;2.77;;;;;;;;;;5027612;28;20492;-55
2021/05/17 11:36:51;;;;;;;4.17;2.70;;;;;;;;;;5033154;28;20028;-55
2021/05/17 11:39:19;;;;;;;3.13;2.20;;;;;;;;;;5033434;28;20475;-55
2021/05/17 11:41:51;;;;;;;9.37;3.10;;;;;;;;;;5033236;28;20025;-55
2021/05/17 11:44:22;;;;;;;4.97;3.07;;;;;;;;;;5033026;28;20041;-55
2021/05/17 11:46:54;;;;;;;6.07;3.20;;;;;;;;;;5033095;28;20029;-55
2021/05/17 11:49:23;;;;;;;9.33;3.60;;;;;;;;;;5033046;28;20541;-55
2021/05/17 11:51:54;;;;;;;6.07;2.80;;;;;;;;;;5032980;28;20030;-55
2021/05/17 11:54:21;;;;;;;7.83;3.47;;;;;;;;;;5032957;28;20049;-55
2021/05/17 11:56:49;;;;;;;5.57;2.70;;;;;;;;;;5032888;28;20488;-55
2021/05/17 11:59:18;;;;;;;7.03;3.50;;;;;;;;;;5032962;28;20259;-55
2021/05/17 12:01:45;;;;;;;27.50;13.10;;;;;;;;;;5033130;28;20273;-55
2021/05/17 12:04:17;;;;;;;16.37;9.63;;;;;;;;;;5032678;28;20649;-55
2021/05/17 12:06:45;;;;;;;9.33;4.73;;;;;;;;;;5032744;28;20033;-55
2021/05/17 12:09:12;;;;;;;11.63;4.00;;;;;;;;;;5032270;28;20259;-55
2021/05/17 12:11:48;;;;;;;6.50;3.57;;;;;;;;;;5032817;28;20026;-55
2021/05/17 12:14:15;;;;;;;6.20;3.87;;;;;;;;;;5032553;28;20048;-55
2021/05/17 12:16:42;;;;;;;5.87;3.37;;;;;;;;;;5040576;28;20484;-55
2021/05/17 12:19:09;;;;;;;6.57;3.90;;;;;;;;;;5052469;28;20250;-55
2021/05/17 12:21:37;;;;;;;5.57;3.07;;;;;;;;;;5052640;28;20265;-55
2021/05/17 12:24:05;;;;;;;7.10;3.23;;;;;;;;;;5052241;28;20333;-55
2021/05/17 12:26:51;;;;;;;6.40;2.87;;;;;;;;;;5052632;28;20258;-55
2021/05/17 12:29:19;;;;;;;6.33;3.47;;;;;;;;;;5052344;28;20262;-55
2021/05/17 12:31:46;;;;;;;5.93;3.27;;;;;;;;;;5052553;28;20250;-55
2021/05/17 12:34:13;;;;;;;4.80;3.20;;;;;;;;;;5052323;28;20246;-55
2021/05/17 12:36:42;;;;;;;5.63;3.67;;;;;;;;;;5052325;28;20242;-55
2021/05/17 12:39:16;;;;;;;4.97;2.77;;;;;;;;;;5052239;28;20729;-55
2021/05/17 12:41:46;;;;;;;10.00;4.15;;;;;;;;;;5052434;28;20289;-55
2021/05/17 12:44:29;;;;;;;6.37;3.63;;;;;;;;;;5052132;28;20037;-55
2021/05/17 12:47:06;;;;;;;5.83;3.50;;;;;;;;;;5052363;28;20257;-55
2021/05/17 12:49:42;;;;;;;4.40;2.93;;;;;;;;;;5052088;28;20250;-54
2021/05/17 12:52:09;;;;;;;5.03;3.07;;;;;;;;;;5052328;28;20333;-55
2021/05/17 12:54:36;;;;;;;5.60;3.40;;;;;;;;;;5052176;28;20308;-55
2021/05/17 12:57:10;;;;;;;6.70;3.53;;;;;;;;;;5052147;28;20282;-55
2021/05/17 12:59:46;;;;;;;10.77;3.58;;;;;;;;;;5052156;28;20321;-55
2021/05/17 13:02:14;;;;;;;8.90;4.00;;;;;;;;;;5052225;28;20507;-55
2021/05/17 13:04:40;;;;;;;6.93;4.03;;;;;;;;;;5052085;28;20059;-55
2021/05/17 13:07:07;;;;;;;7.33;3.40;;;;;;;;;;5052090;28;20036;-55
2021/05/17 13:09:35;;;;;;;7.57;3.50;;;;;;;;;;5052068;28;20025;-55
2021/05/17 13:12:02;;;;;;;5.67;3.67;;;;;;;;;;5052007;28;20268;-55
2021/05/17 13:14:28;;;;;;;6.90;4.00;;;;;;;;;;5051974;28;20499;-55
2021/05/17 13:17:00;;;;;;;6.10;3.50;;;;;;;;;;5052907;28;20053;-55
2021/05/17 13:30:14;;;;;;;5.22;3.50;;;;;;;;;;5056022;28;20048;-54
2021/05/17 13:32:43;;;;;;;4.82;3.28;;;;;;;;;;5055715;28;20033;-55
2021/05/17 13:35:24;;;;;;;7.30;3.50;;;;;;;;;;5055452;28;20036;-56
2021/05/17 13:38:06;;;;;;;;;;;;;;;;;;;;;
2021/05/17 13:40:33;;;;;;;6.20;3.00;;;;;;;;;;5054553;28;20496;-55
2021/05/17 13:43:01;;;;;;;7.70;3.10;;;;;;;;;;5055055;28;20427;-55
2021/05/17 13:45:44;;;;;;;6.20;2.23;;;;;;;;;;5050147;28;20037;-56
2021/05/17 13:48:21;;;;;;;4.43;2.70;;;;;;;;;;5052572;28;20047;-55
2021/05/17 13:50:48;;;;;;;5.73;3.07;;;;;;;;;;5048919;28;20040;-56
2021/05/17 13:53:41;;;;;;;5.83;3.50;;;;;;;;;;5055037;28;20060;-55
2021/05/17 13:56:20;;;;;;;5.70;3.10;;;;;;;;;;5053597;28;20060;-55
2021/05/17 13:58:47;;;;;;;12.67;4.10;;;;;;;;;;5055093;28;20021;-55
2021/05/17 14:04:09;;;;;;;5.93;3.88;;;;;;;;;;5043725;28;20044;-55
2021/05/17 14:06:36;;;;;;;5.03;3.40;;;;;;;;;;5055094;28;20115;-57
2021/05/17 14:09:04;;;;;;;7.87;2.93;;;;;;;;;;5054653;28;20076;-57
2021/05/17 14:11:31;;;;;;;5.73;3.03;;;;;;;;;;5054855;28;20488;-55
2021/05/17 14:13:58;;;;;;;8.20;2.93;;;;;;;;;;5054379;28;20064;-56
2021/05/17 14:16:25;;;;;;;6.90;2.47;;;;;;;;;;5055623;28;20435;-56
2021/05/17 14:18:51;;;;;;;5.60;2.87;;;;;;;;;;5054569;28;20384;-56
2021/05/17 14:21:18;;;;;;;4.30;2.63;;;;;;;;;;5054498;28;20411;-56
2021/05/17 14:23:45;;;;;;;3.73;2.60;;;;;;;;;;5054540;28;20079;-56
2021/05/17 14:26:12;;;;;;;4.33;2.00;;;;;;;;;;5054340;28;20495;-55
2021/05/17 14:28:44;;;;;;;7.97;2.00;;;;;;;;;;5054350;28;20025;-55
2021/05/17 14:31:14;;;;;;;2.87;1.87;;;;;;;;;;5054437;28;20021;-55
2021/05/17 14:33:41;;;;;;;3.87;2.03;;;;;;;;;;5054083;28;20021;-56
2021/05/17 14:36:08;;;;;;;3.00;1.83;;;;;;;;;;5054147;28;20029;-56
2021/05/17 14:38:34;;;;;;;4.17;2.27;;;;;;;;;;5054175;28;20029;-56
2021/05/17 14:41:03;;;;;;;3.73;2.40;;;;;;;;;;5054113;28;20079;-56
2021/05/17 14:43:30;;;;;;;3.10;1.97;;;;;;;;;;5054059;28;20048;-56
2021/05/17 14:45:57;;;;;;;6.13;2.10;;;;;;;;;;5054123;28;20083;-56
2021/05/17 14:48:25;;;;;;;4.37;2.23;;;;;;;;;;5053934;28;20032;-56
2021/05/17 14:50:52;;;;;;;3.83;2.30;;;;;;;;;;5054086;28;20075;-56
2021/05/17 14:53:19;;;;;;;4.00;2.77;;;;;;;;;;5054075;28;20147;-56
2021/05/17 14:55:47;;;;;;;6.13;2.47;;;;;;;;;;5053855;28;20017;-56
2021/05/17 14:58:14;;;;;;;3.43;2.23;;;;;;;;;;5053761;28;20416;-56
2021/05/17 15:00:43;;;;;;;4.53;2.17;;;;;;;;;;5053717;28;20357;-56
2021/05/17 15:03:10;;;;;;;3.77;2.43;;;;;;;;;;5053702;28;20041;-56
2021/05/17 15:05:37;;;;;;;4.33;2.53;;;;;;;;;;5053609;28;20083;-56
2021/05/17 15:08:03;;;;;;;5.13;2.50;;;;;;;;;;5053686;28;20111;-56
2021/05/17 15:10:30;;;;;;;3.93;2.43;;;;;;;;;;5053514;28;20496;-56
2021/05/17 15:12:57;;;;;;;3.20;2.10;;;;;;;;;;5053735;28;20107;-56
2021/05/17 15:15:26;;;;;;;3.57;2.00;;;;;;;;;;5053521;28;20032;-56
2021/05/17 15:17:55;;;;;;;3.87;1.80;;;;;;;;;;5054474;28;20480;-56
2021/05/17 15:20:22;;;;;;;5.37;2.80;;;;;;;;;;5053511;28;20053;-56
2021/05/17 15:22:50;;;;;;;3.90;2.27;;;;;;;;;;5053370;28;20047;-56
2021/05/17 15:25:18;;;;;;;3.57;2.10;;;;;;;;;;5053309;28;20029;-56
2021/05/17 15:27:48;;;;;;;3.67;2.27;;;;;;;;;;5053201;28;20025;-56
2021/05/17 15:30:15;;;;;;;5.97;2.30;;;;;;;;;;5053183;28;20089;-56